createdAt,value
2018-10-17T00:00:35.445Z,52.20
2018-10-17T00:03:03.803Z,52.00
2018-10-17T00:05:32.061Z,51.90
2018-10-17T00:08:01.082Z,52.50
2018-10-17T00:10:29.347Z,52.50
2018-10-17T00:12:57.763Z,52.40
2018-10-17T00:15:25.993Z,52.50
2018-10-17T00:17:54.256Z,52.60
2018-10-17T00:20:23.259Z,53.20
2018-10-17T00:22:51.547Z,52.30
2018-10-17T00:25:19.786Z,52.50
2018-10-17T00:27:48.055Z,52.00
2018-10-17T00:30:16.310Z,52.30
2018-10-17T00:32:44.936Z,52.30
2018-10-17T00:35:13.227Z,52.50
2018-10-17T00:37:42.241Z,52.60
2018-10-17T00:40:10.492Z,52.60
2018-10-17T00:42:39.538Z,52.70
2018-10-17T00:45:07.782Z,52.70
2018-10-17T00:47:36.800Z,52.50
2018-10-17T00:50:05.035Z,52.20
2018-10-17T00:52:33.276Z,52.80
2018-10-17T00:55:01.559Z,52.30
2018-10-17T00:57:29.834Z,52.50
2018-10-17T00:59:58.869Z,53.10
2018-10-17T01:02:27.124Z,52.90
2018-10-17T01:04:56.187Z,52.50
2018-10-17T01:07:24.411Z,52.50
2018-10-17T01:09:52.705Z,52.40
2018-10-17T01:12:20.952Z,52.80
2018-10-17T01:14:49.245Z,52.70
2018-10-17T01:17:17.503Z,52.50
2018-10-17T01:19:45.742Z,52.50
2018-10-17T01:22:14.775Z,53.10
2018-10-17T01:24:43.012Z,52.90
2018-10-17T01:27:12.068Z,53.00
2018-10-17T01:29:40.340Z,53.00
2018-10-17T01:32:08.614Z,53.00
2018-10-17T01:34:36.901Z,53.00
2018-10-17T01:37:05.199Z,53.20
2018-10-17T01:39:33.425Z,53.30
2018-10-17T01:42:02.081Z,53.30
2018-10-17T01:44:30.342Z,52.50
2018-10-17T01:46:59.466Z,51.90
2018-10-17T01:49:27.679Z,52.00
2018-10-17T01:51:55.951Z,51.90
2018-10-17T01:54:24.194Z,51.80
2018-10-17T01:56:52.493Z,53.60
2018-10-17T01:59:20.732Z,53.70
2018-10-17T02:01:49.201Z,53.40
2018-10-17T02:04:18.202Z,53.90
2018-10-17T02:06:46.481Z,53.90
2018-10-17T02:09:14.790Z,53.90
2018-10-17T02:11:43.031Z,53.90
2018-10-17T02:14:11.363Z,53.70
2018-10-17T02:16:39.623Z,53.10
2018-10-17T02:19:07.961Z,53.50
2018-10-17T02:21:36.142Z,54.30
2018-10-17T02:24:04.407Z,54.10
2018-10-17T02:26:32.678Z,53.80
2018-10-17T02:29:00.962Z,54.00
2018-10-17T02:31:29.589Z,54.00
2018-10-17T02:33:57.859Z,53.80
2018-10-17T02:36:26.098Z,54.00
2018-10-17T02:38:54.370Z,54.00
2018-10-17T02:41:22.639Z,53.80
2018-10-17T02:43:52.898Z,53.90
2018-10-17T02:46:21.205Z,53.90
2018-10-17T02:48:49.425Z,53.50
2018-10-17T02:51:17.699Z,53.50
2018-10-17T02:53:45.963Z,52.80
2018-10-17T02:56:14.227Z,52.50
2018-10-17T02:58:42.477Z,52.80
2018-10-17T03:01:11.796Z,52.80
2018-10-17T03:03:39.975Z,52.70
2018-10-17T03:06:08.239Z,52.90
2018-10-17T03:08:36.817Z,52.60
2018-10-17T03:11:05.932Z,52.80
2018-10-17T03:13:34.111Z,52.80
2018-10-17T03:16:02.390Z,52.80
2018-10-17T03:18:30.649Z,52.80
2018-10-17T03:20:59.678Z,53.50
2018-10-17T03:23:27.943Z,53.40
2018-10-17T03:25:56.186Z,53.50
2018-10-17T03:28:25.214Z,54.10
2018-10-17T03:30:53.544Z,53.20
2018-10-17T03:33:21.762Z,53.00
2018-10-17T03:35:50.105Z,53.60
2018-10-17T03:38:18.572Z,54.30
2018-10-17T03:40:46.844Z,54.50
2018-10-17T03:43:15.197Z,54.30
2018-10-17T03:45:43.387Z,54.00
2018-10-17T03:48:11.639Z,53.60
2018-10-17T03:50:39.890Z,53.70
2018-10-17T03:53:08.235Z,54.00
2018-10-17T03:55:36.426Z,54.10
2018-10-17T03:58:04.707Z,54.10
2018-10-17T04:00:32.978Z,54.30
2018-10-17T04:03:01.305Z,54.20
2018-10-17T04:05:29.488Z,53.90
2018-10-17T04:07:57.966Z,53.00
2018-10-17T04:10:26.275Z,52.90
2018-10-17T04:12:54.585Z,52.70
2018-10-17T04:15:23.130Z,52.50
2018-10-17T04:17:51.471Z,53.40
2018-10-17T04:20:19.725Z,52.90
2018-10-17T04:22:48.060Z,52.80
2018-10-17T04:25:16.326Z,52.90
2018-10-17T04:27:44.560Z,53.00
2018-10-17T04:30:12.820Z,53.00
2018-10-17T04:32:41.097Z,53.00
2018-10-17T04:35:09.518Z,53.00
2018-10-17T04:37:38.464Z,52.90
2018-10-17T04:40:06.704Z,52.90
2018-10-17T04:42:34.986Z,53.00
2018-10-17T04:45:03.246Z,52.40
2018-10-17T04:47:32.718Z,52.60
2018-10-17T04:50:00.978Z,52.60
2018-10-17T04:52:29.240Z,53.30
2018-10-17T04:54:57.494Z,53.80
2018-10-17T04:57:25.769Z,53.80
2018-10-17T04:59:54.041Z,53.50
2018-10-17T05:02:22.296Z,54.20
2018-10-17T05:04:51.318Z,55.80
2018-10-17T05:07:19.639Z,55.70
2018-10-17T05:09:47.890Z,55.80
2018-10-17T05:12:16.138Z,55.30
2018-10-17T05:14:44.386Z,56.00
2018-10-17T05:17:13.569Z,55.20
2018-10-17T05:19:41.901Z,55.10
2018-10-17T05:22:10.153Z,55.30
2018-10-17T05:24:38.443Z,55.30
2018-10-17T05:27:07.450Z,54.70
2018-10-17T05:29:35.778Z,54.60
2018-10-17T05:32:03.968Z,53.70
2018-10-17T05:34:32.246Z,53.70
2018-10-17T05:37:00.554Z,54.00
2018-10-17T05:39:29.524Z,54.30
2018-10-17T05:41:57.895Z,54.30
2018-10-17T05:44:26.187Z,54.20
2018-10-17T05:46:54.444Z,54.00
2018-10-17T05:49:22.711Z,54.30
2018-10-17T05:51:50.993Z,54.50
2018-10-17T05:54:19.258Z,54.60
2018-10-17T05:56:47.505Z,54.80
2018-10-17T05:59:15.762Z,54.70
2018-10-17T06:01:44.339Z,54.20
2018-10-17T06:04:12.494Z,54.10
2018-10-17T06:06:40.734Z,53.90
2018-10-17T06:09:09.071Z,54.00
2018-10-17T06:11:37.345Z,54.10
2018-10-17T06:14:05.596Z,54.00
2018-10-17T06:16:34.080Z,53.90
2018-10-17T06:19:02.388Z,54.20
2018-10-17T06:21:30.574Z,54.90
2018-10-17T06:23:59.618Z,55.40
2018-10-17T06:26:27.905Z,55.40
2018-10-17T06:28:56.218Z,55.20
2018-10-17T06:31:24.432Z,55.20
2018-10-17T06:33:52.820Z,55.20
2018-10-17T06:36:21.069Z,55.70
2018-10-17T06:38:49.342Z,56.30
2018-10-17T06:41:17.710Z,56.90
2018-10-17T06:43:46.043Z,57.40
2018-10-17T06:46:14.967Z,57.20
2018-10-17T06:48:44.015Z,57.90
2018-10-17T06:51:12.340Z,57.90
2018-10-17T06:53:40.606Z,57.60
2018-10-17T06:56:09.363Z,57.40
2018-10-17T06:58:37.734Z,58.00
2018-10-17T07:01:06.009Z,58.60
2018-10-17T07:03:34.268Z,58.70
2018-10-17T07:06:02.614Z,59.60
2018-10-17T07:08:31.724Z,59.50
2018-10-17T07:10:59.979Z,59.40
2018-10-17T07:13:28.958Z,59.90
2018-10-17T07:15:58.109Z,59.30
2018-10-17T07:18:27.998Z,59.60
2018-10-17T07:20:56.306Z,59.60
2018-10-17T07:23:24.583Z,59.70
2018-10-17T07:25:52.974Z,59.00
2018-10-17T07:28:21.257Z,59.60
2018-10-17T07:30:49.567Z,60.00
2018-10-17T07:33:17.862Z,59.30
2018-10-17T07:35:46.233Z,59.30
2018-10-17T07:38:14.404Z,59.60
2018-10-17T07:40:42.703Z,59.60
2018-10-17T07:43:10.975Z,59.40
2018-10-17T07:45:39.308Z,59.40
2018-10-17T07:48:07.581Z,59.00
2018-10-17T07:50:35.786Z,59.90
2018-10-17T07:53:04.070Z,58.60
2018-10-17T07:55:32.381Z,57.80
2018-10-17T07:58:00.667Z,57.30
2018-10-17T08:00:29.042Z,57.00
2018-10-17T08:02:57.206Z,56.70
2018-10-17T08:05:25.543Z,56.40
2018-10-17T08:07:54.292Z,56.00
2018-10-17T08:10:23.386Z,54.20
2018-10-17T08:12:51.630Z,54.10
2018-10-17T08:15:19.903Z,54.20
2018-10-17T08:17:48.166Z,54.80
2018-10-17T08:20:16.446Z,54.00
2018-10-17T08:22:44.713Z,53.20
2018-10-17T08:25:12.993Z,54.30
2018-10-17T08:27:41.268Z,53.30
2018-10-17T08:30:09.608Z,52.90
2018-10-17T08:32:37.799Z,51.80
2018-10-17T08:35:06.131Z,51.70
2018-10-17T08:37:34.747Z,52.00
2018-10-17T08:40:02.643Z,50.90
2018-10-17T08:42:30.981Z,51.40
2018-10-17T08:44:59.227Z,51.00
2018-10-17T08:47:27.520Z,49.50
2018-10-17T08:49:56.631Z,49.50
2018-10-17T08:52:24.816Z,49.30
2018-10-17T08:54:53.076Z,49.20
2018-10-17T08:57:21.324Z,48.30
2018-10-17T08:59:50.365Z,47.30
2018-10-17T09:02:18.634Z,47.20
2018-10-17T09:04:46.915Z,47.30
2018-10-17T09:07:15.167Z,47.40
2018-10-17T09:09:43.423Z,48.50
2018-10-17T09:12:11.975Z,47.90
2018-10-17T09:14:40.180Z,47.60
2018-10-17T09:17:09.190Z,47.00
2018-10-17T09:19:37.674Z,47.10
2018-10-17T09:22:06.918Z,47.50
2018-10-17T09:24:34.743Z,47.60
2018-10-17T09:27:03.055Z,45.50
2018-10-17T09:29:31.332Z,45.10
2018-10-17T09:31:59.599Z,45.40
2018-10-17T09:34:27.847Z,45.50
2018-10-17T09:36:56.153Z,45.10
2018-10-17T09:39:24.403Z,45.20
2018-10-17T09:41:52.723Z,44.30
2018-10-17T09:44:20.931Z,45.00
2018-10-17T09:46:49.197Z,44.40
2018-10-17T09:49:18.243Z,44.30
2018-10-17T09:51:46.533Z,44.20
2018-10-17T09:54:14.821Z,44.00
2018-10-17T09:56:43.018Z,43.20
2018-10-17T09:59:12.062Z,42.50
2018-10-17T10:01:40.350Z,42.40
2018-10-17T10:04:08.681Z,42.10
2018-10-17T10:06:37.827Z,43.20
2018-10-17T10:09:06.118Z,43.20
2018-10-17T10:11:35.215Z,42.80
2018-10-17T10:14:03.462Z,42.60
2018-10-17T10:16:31.746Z,43.30
2018-10-17T10:18:59.998Z,42.50
2018-10-17T10:21:28.282Z,42.80
2018-10-17T10:23:56.579Z,40.60
2018-10-17T10:26:24.835Z,41.10
2018-10-17T10:28:53.111Z,39.90
2018-10-17T10:31:21.394Z,40.00
2018-10-17T10:33:49.685Z,41.60
2018-10-17T10:36:17.968Z,40.70
2018-10-17T10:38:46.226Z,40.00
2018-10-17T10:41:14.523Z,40.70
2018-10-17T10:43:43.567Z,40.00
2018-10-17T10:46:11.855Z,40.00
2018-10-17T10:48:40.103Z,39.50
2018-10-17T10:51:08.473Z,39.80
2018-10-17T10:53:36.650Z,39.40
2018-10-17T10:56:04.939Z,40.10
2018-10-17T10:58:34.100Z,39.00
2018-10-17T11:01:02.318Z,39.10
2018-10-17T11:03:30.590Z,39.70
2018-10-17T11:05:58.858Z,38.90
2018-10-17T11:08:27.141Z,39.70
2018-10-17T11:10:55.427Z,38.80
2018-10-17T11:13:23.674Z,38.80
2018-10-17T11:15:51.951Z,39.40
2018-10-17T11:18:20.214Z,38.70
2018-10-17T11:20:48.501Z,38.90
2018-10-17T11:23:16.756Z,38.70
2018-10-17T11:25:45.762Z,39.20
2018-10-17T11:28:14.075Z,39.10
2018-10-17T11:30:42.327Z,38.50
2018-10-17T11:33:10.647Z,38.70
2018-10-17T11:35:38.895Z,39.40
2018-10-17T11:38:07.148Z,39.40
2018-10-17T11:40:35.490Z,38.80
2018-10-17T11:43:03.683Z,39.60
2018-10-17T11:45:31.955Z,37.60
2018-10-17T11:48:00.226Z,37.80
2018-10-17T11:50:28.564Z,38.90
2018-10-17T11:52:56.818Z,38.10
2018-10-17T11:55:25.075Z,39.50
2018-10-17T11:57:53.358Z,37.60
2018-10-17T12:00:21.633Z,37.50
2018-10-17T12:02:49.907Z,37.70
2018-10-17T12:05:18.361Z,38.30
2018-10-17T12:07:47.226Z,37.40
2018-10-17T12:21:45.324Z,37.00
2018-10-17T12:24:13.659Z,36.60
2018-10-17T12:26:41.851Z,37.40
2018-10-17T12:29:10.095Z,36.60
2018-10-17T12:31:39.115Z,36.20
2018-10-17T12:34:07.720Z,36.10
2018-10-17T12:36:36.033Z,36.40
2018-10-17T12:39:05.169Z,37.00
2018-10-17T12:41:33.452Z,37.80
2018-10-17T12:44:02.506Z,38.50
2018-10-17T12:46:30.785Z,37.80
2018-10-17T12:48:59.067Z,37.20
2018-10-17T12:51:27.310Z,40.20
2018-10-17T12:53:55.892Z,36.50
2018-10-17T12:56:24.895Z,36.60
2018-10-17T12:58:53.435Z,36.60
2018-10-17T13:01:21.692Z,36.80
2018-10-17T13:03:49.966Z,36.60
2018-10-17T13:06:18.202Z,38.00
2018-10-17T13:08:46.494Z,36.30
2018-10-17T13:11:14.857Z,38.20
2018-10-17T13:13:43.800Z,36.70
2018-10-17T13:16:12.068Z,36.80
2018-10-17T13:18:40.351Z,36.40
2018-10-17T13:21:08.604Z,35.30
2018-10-17T13:23:36.859Z,34.40
2018-10-17T13:26:05.890Z,34.60
2018-10-17T13:28:34.475Z,34.60
2018-10-17T13:31:02.747Z,34.90
2018-10-17T13:33:31.733Z,36.70
2018-10-17T13:36:00.014Z,36.60
2018-10-17T13:38:28.266Z,34.20
2018-10-17T13:40:56.647Z,35.50
2018-10-17T13:43:24.868Z,34.70
2018-10-17T13:45:53.143Z,34.00
2018-10-17T13:48:21.385Z,36.70
2018-10-17T13:50:49.640Z,35.10
2018-10-17T13:53:18.757Z,34.20
2018-10-17T13:55:46.922Z,34.20
2018-10-17T13:58:15.274Z,34.30
2018-10-17T14:00:44.267Z,34.30
2018-10-17T14:03:13.307Z,35.50
2018-10-17T14:05:41.587Z,35.50
2018-10-17T14:08:09.861Z,36.10
2018-10-17T14:10:38.119Z,34.90
2018-10-17T14:13:06.424Z,36.20
2018-10-17T14:15:34.677Z,35.50
2018-10-17T14:18:02.998Z,34.60
2018-10-17T14:20:31.208Z,36.00
2018-10-17T14:23:00.259Z,36.60
2018-10-17T14:25:28.544Z,36.60
2018-10-17T14:27:56.798Z,36.70
2018-10-17T14:30:25.071Z,36.80
2018-10-17T14:32:53.418Z,37.30
2018-10-17T14:35:21.606Z,36.90
2018-10-17T14:37:50.009Z,36.20
2018-10-17T14:40:19.002Z,37.20
2018-10-17T14:42:47.310Z,37.60
2018-10-17T14:45:15.665Z,37.50
2018-10-17T14:47:44.668Z,38.00
2018-10-17T14:50:13.685Z,37.20
2018-10-17T14:52:41.935Z,37.10
2018-10-17T14:55:10.979Z,37.30
2018-10-17T14:57:39.292Z,37.30
2018-10-17T15:00:07.532Z,37.40
2018-10-17T15:02:35.792Z,37.20
2018-10-17T15:05:04.109Z,37.80
2018-10-17T15:07:32.319Z,37.90
2018-10-17T15:10:01.502Z,38.20
2018-10-17T15:12:29.657Z,38.20
2018-10-17T15:14:57.928Z,39.40
2018-10-17T15:17:26.194Z,38.00
2018-10-17T15:19:54.513Z,39.50
2018-10-17T15:22:23.732Z,41.30
2018-10-17T15:24:52.000Z,41.30
2018-10-17T15:27:20.279Z,41.20
2018-10-17T15:29:48.558Z,40.60
2018-10-17T15:32:16.946Z,39.90
2018-10-17T15:34:45.228Z,40.90
2018-10-17T15:37:13.498Z,41.80
2018-10-17T15:39:41.815Z,41.10
2018-10-17T15:42:10.078Z,41.50
2018-10-17T15:44:38.362Z,41.50
2018-10-17T15:47:06.661Z,42.30
2018-10-17T15:49:35.763Z,42.00
2018-10-17T15:52:04.025Z,42.00
2018-10-17T15:54:33.082Z,42.40
2018-10-17T15:57:01.390Z,42.40
2018-10-17T15:59:29.620Z,42.80
2018-10-17T16:01:58.020Z,43.30
2018-10-17T16:04:26.990Z,43.90
2018-10-17T16:06:55.265Z,43.90
2018-10-17T16:09:23.541Z,43.60
2018-10-17T16:11:51.849Z,43.70
2018-10-17T16:14:20.203Z,44.30
2018-10-17T16:16:48.393Z,44.40
2018-10-17T16:19:16.693Z,44.70
2018-10-17T16:21:45.726Z,44.70
2018-10-17T16:24:14.041Z,44.50
2018-10-17T16:26:42.282Z,45.10
2018-10-17T16:29:10.547Z,45.60
2018-10-17T16:31:38.827Z,45.50
2018-10-17T16:34:07.625Z,45.60
2018-10-17T16:36:37.167Z,45.70
2018-10-17T16:39:05.461Z,46.80
2018-10-17T16:41:34.622Z,47.40
2018-10-17T16:44:02.919Z,47.30
2018-10-17T16:46:31.134Z,47.60
2018-10-17T16:48:59.415Z,47.40
2018-10-17T16:51:28.269Z,48.20
2018-10-17T16:53:56.648Z,48.20
2018-10-17T16:56:24.872Z,48.20
2018-10-17T16:58:53.918Z,48.60
2018-10-17T17:01:22.258Z,48.60
2018-10-17T17:03:50.515Z,48.70
2018-10-17T17:06:19.559Z,48.20
2018-10-17T17:08:48.588Z,48.00
2018-10-17T17:11:16.874Z,48.00
2018-10-17T17:13:45.146Z,47.90
2018-10-17T17:16:13.498Z,47.90
2018-10-17T17:18:41.724Z,48.10
2018-10-17T17:21:10.063Z,48.60
2018-10-17T17:23:38.315Z,48.70
2018-10-17T17:26:06.603Z,49.30
2018-10-17T17:28:34.911Z,49.20
2018-10-17T17:33:38.840Z,49.10
2018-10-17T17:36:08.795Z,49.10
2018-10-17T17:38:36.996Z,49.00
2018-10-17T17:41:05.269Z,49.30
2018-10-17T17:43:33.542Z,49.70
2018-10-17T17:46:01.877Z,50.10
2018-10-17T17:48:30.134Z,50.50
2018-10-17T17:50:58.456Z,50.50
2018-10-17T17:53:26.699Z,50.30
2018-10-17T17:55:54.983Z,50.50
2018-10-17T17:58:24.099Z,50.50
2018-10-17T18:00:52.314Z,50.50
2018-10-17T18:03:20.563Z,50.60
2018-10-17T18:05:48.851Z,49.60
2018-10-17T18:08:17.142Z,48.70
2018-10-17T18:10:45.432Z,49.50
2018-10-17T18:13:13.673Z,50.00
2018-10-17T18:15:41.961Z,49.60
2018-10-17T18:18:10.915Z,49.60
2018-10-17T18:20:39.926Z,50.70
2018-10-17T18:23:08.239Z,50.70
2018-10-17T18:25:36.498Z,51.00
2018-10-17T18:28:04.913Z,51.00
2018-10-17T18:30:33.117Z,51.00
2018-10-17T18:33:01.389Z,50.80
2018-10-17T18:35:29.662Z,51.20
2018-10-17T18:37:58.112Z,51.70
2018-10-17T18:40:26.466Z,51.50
2018-10-17T18:42:55.439Z,51.70
2018-10-17T18:45:23.825Z,51.70
2018-10-17T18:47:52.236Z,51.70
2018-10-17T18:50:20.528Z,51.80
2018-10-17T18:52:49.571Z,52.20
2018-10-17T18:55:18.142Z,52.00
2018-10-17T18:57:46.410Z,51.70
2018-10-17T19:00:14.671Z,52.00
2018-10-17T19:02:42.981Z,52.00
2018-10-17T19:05:11.227Z,50.40
2018-10-17T19:07:39.524Z,51.20
2018-10-17T19:10:07.831Z,51.80
2018-10-17T19:12:36.121Z,52.30
2018-10-17T19:15:04.493Z,52.50
2018-10-17T19:17:32.690Z,52.70
2018-10-17T19:20:00.983Z,52.20
2018-10-17T19:22:29.261Z,53.00
2018-10-17T19:24:57.510Z,52.90
2018-10-17T19:27:26.559Z,53.10
2018-10-17T19:29:54.847Z,53.10
2018-10-17T19:32:23.140Z,53.10
2018-10-17T19:34:51.509Z,53.20
2018-10-17T19:37:19.798Z,52.30
2018-10-17T19:39:48.083Z,51.20
2018-10-17T19:42:17.843Z,51.30
2018-10-17T19:44:46.164Z,51.30
2018-10-17T19:47:14.487Z,51.50
2018-10-17T19:49:42.796Z,52.00
2018-10-17T19:52:11.083Z,52.70
2018-10-17T19:54:39.338Z,52.60
2018-10-17T19:57:07.682Z,52.60
2018-10-17T19:59:37.104Z,52.60
2018-10-17T20:02:05.399Z,52.60
2018-10-17T20:04:33.666Z,52.60
2018-10-17T20:07:01.957Z,52.40
2018-10-17T20:09:30.229Z,53.00
2018-10-17T20:11:58.550Z,53.50
2018-10-17T20:14:26.869Z,53.40
2018-10-17T20:16:55.841Z,53.00
2018-10-17T20:19:24.174Z,53.00
2018-10-17T20:21:53.214Z,53.10
2018-10-17T20:24:21.526Z,53.10
2018-10-17T20:26:50.046Z,53.60
2018-10-17T20:29:18.319Z,54.30
2018-10-17T20:31:46.603Z,54.30
2018-10-17T20:34:15.087Z,53.80
2018-10-17T20:36:43.349Z,54.10
2018-10-17T20:39:11.614Z,54.20
2018-10-17T20:41:40.093Z,54.90
2018-10-17T20:44:09.215Z,54.80
2018-10-17T20:46:37.431Z,54.80
2018-10-17T20:49:05.799Z,54.80
2018-10-17T20:51:34.067Z,54.70
2018-10-17T20:54:02.331Z,54.50
2018-10-17T20:56:31.373Z,54.90
2018-10-17T20:59:00.418Z,53.40
2018-10-17T21:01:28.671Z,53.40
2018-10-17T21:03:56.945Z,52.50
2018-10-17T21:06:25.218Z,53.50
2018-10-17T21:08:53.484Z,54.00
2018-10-17T21:11:21.773Z,54.30
2018-10-17T21:13:50.025Z,54.40
2018-10-17T21:16:19.064Z,54.60
2018-10-17T21:18:47.410Z,54.60
2018-10-17T21:21:15.623Z,54.60
2018-10-17T21:23:43.904Z,54.10
2018-10-17T21:26:12.200Z,52.80
2018-10-17T21:28:40.480Z,53.60
2018-10-17T21:31:09.520Z,53.90
2018-10-17T21:33:37.813Z,53.90
2018-10-17T21:36:06.384Z,54.10
2018-10-17T21:38:34.656Z,53.40
2018-10-17T21:41:02.943Z,54.20
2018-10-17T21:43:31.216Z,53.00
2018-10-17T21:46:00.287Z,54.20
2018-10-17T21:48:28.563Z,53.70
2018-10-17T21:50:56.842Z,54.00
2018-10-17T21:53:25.119Z,53.20
2018-10-17T21:55:56.505Z,54.20
2018-10-17T21:58:25.427Z,54.60
2018-10-17T22:00:53.699Z,54.60
2018-10-17T22:03:22.180Z,54.70
2018-10-17T22:05:50.446Z,54.70
2018-10-17T22:08:19.453Z,55.30
2018-10-17T22:10:47.743Z,55.30
2018-10-17T22:13:15.997Z,54.80
2018-10-17T22:15:45.047Z,54.70
2018-10-17T22:18:13.296Z,54.60
2018-10-17T22:20:41.539Z,55.00
2018-10-17T22:23:10.582Z,55.30
2018-10-17T22:25:38.826Z,55.30
2018-10-17T22:28:07.088Z,56.10
2018-10-17T22:30:35.594Z,56.10
2018-10-17T22:33:03.868Z,55.80
2018-10-17T22:35:32.127Z,55.80
2018-10-17T22:38:00.430Z,55.70
2018-10-17T22:40:28.662Z,55.80
2018-10-17T22:42:56.921Z,55.20
2018-10-17T22:45:25.963Z,56.00
2018-10-17T22:47:54.218Z,55.20
2018-10-17T22:50:22.497Z,55.60
2018-10-17T22:52:51.027Z,56.00
2018-10-17T22:55:19.378Z,56.10
2018-10-17T22:57:47.535Z,54.40
2018-10-17T23:00:15.820Z,54.50
2018-10-17T23:02:44.151Z,54.60
2018-10-17T23:05:12.403Z,55.20
2018-10-17T23:07:40.677Z,56.40
2018-10-17T23:10:09.056Z,55.30
2018-10-17T23:12:37.312Z,55.00
2018-10-17T23:15:05.563Z,54.50
2018-10-17T23:17:33.826Z,54.90
2018-10-17T23:20:02.154Z,55.10
2018-10-17T23:22:31.412Z,55.00
2018-10-17T23:24:59.672Z,54.90
2018-10-17T23:27:27.926Z,54.80
2018-10-17T23:29:56.970Z,54.20
2018-10-17T23:32:25.224Z,54.00
2018-10-17T23:34:53.486Z,54.30
2018-10-17T23:37:21.742Z,54.60
2018-10-17T23:39:50.795Z,54.40
2018-10-17T23:42:19.031Z,54.40
2018-10-17T23:44:47.306Z,54.60
2018-10-17T23:47:15.660Z,54.50
2018-10-17T23:49:44.694Z,55.00
2018-10-17T23:52:12.970Z,54.80
2018-10-17T23:54:41.229Z,54.90
2018-10-17T23:57:09.730Z,55.10
2018-10-17T23:59:37.990Z,55.20
